sensor_id;sensor_type;location;lat;lon;timestamp;pressure;altitude;pressure_sealevel;temperature;humidity
75794;BME280;64418;47.536;19.074;2023-06-14T00:02:15;100066.28;;;14.14;77.01
75794;BME280;64418;47.536;19.074;2023-06-14T00:04:41;100058.44;;;14.06;77.37
75794;BME280;64418;47.536;19.074;2023-06-14T00:07:11;100062.97;;;14.12;76.92
75794;BME280;64418;47.536;19.074;2023-06-14T00:09:41;100059.28;;;14.07;77.19
75794;BME280;64418;47.536;19.074;2023-06-14T00:12:10;100061.31;;;14.11;77.00
75794;BME280;64418;47.536;19.074;2023-06-14T00:14:37;100067.09;;;14.03;77.31
75794;BME280;64418;47.536;19.074;2023-06-14T00:17:04;100060.47;;;14.11;76.81
75794;BME280;64418;47.536;19.074;2023-06-14T00:19:31;100057.63;;;14.17;76.47
75794;BME280;64418;47.536;19.074;2023-06-14T00:21:58;100060.69;;;14.09;76.77
75794;BME280;64418;47.536;19.074;2023-06-14T00:24:25;100064.97;;;14.05;76.99
75794;BME280;64418;47.536;19.074;2023-06-14T00:26:55;100065.09;;;14.10;76.86
75794;BME280;64418;47.536;19.074;2023-06-14T00:29:22;100064.25;;;13.98;77.63
75794;BME280;64418;47.536;19.074;2023-06-14T00:31:49;100068.03;;;13.85;78.43
75794;BME280;64418;47.536;19.074;2023-06-14T00:34:15;100073.25;;;13.87;78.27
75794;BME280;64418;47.536;19.074;2023-06-14T00:36:41;100043.53;;;13.74;78.34
75794;BME280;64418;47.536;19.074;2023-06-14T00:39:08;100076.09;;;13.80;78.85
75794;BME280;64418;47.536;19.074;2023-06-14T00:41:34;100078.22;;;13.90;78.29
75794;BME280;64418;47.536;19.074;2023-06-14T00:44:02;100078.09;;;13.85;78.61
75794;BME280;64418;47.536;19.074;2023-06-14T00:46:31;100080.22;;;13.83;79.20
75794;BME280;64418;47.536;19.074;2023-06-14T00:48:58;100079.84;;;13.79;79.70
75794;BME280;64418;47.536;19.074;2023-06-14T00:51:50;100079.62;;;13.81;79.69
75794;BME280;64418;47.536;19.074;2023-06-14T00:54:43;100046.81;;;13.64;79.87
75794;BME280;64418;47.536;19.074;2023-06-14T00:57:33;100075.50;;;13.78;79.54
75794;BME280;64418;47.536;19.074;2023-06-14T01:00:27;100075.00;;;13.70;80.37
75794;BME280;64418;47.536;19.074;2023-06-14T01:03:17;100083.66;;;13.67;80.71
75794;BME280;64418;47.536;19.074;2023-06-14T01:06:19;100080.94;;;13.67;80.60
75794;BME280;64418;47.536;19.074;2023-06-14T01:09:18;100080.16;;;13.60;81.26
75794;BME280;64418;47.536;19.074;2023-06-14T01:12:16;100078.41;;;13.54;81.24
75794;BME280;64418;47.536;19.074;2023-06-14T01:15:07;100072.09;;;13.41;82.10
75794;BME280;64418;47.536;19.074;2023-06-14T01:18:00;100085.56;;;13.36;82.77
75794;BME280;64418;47.536;19.074;2023-06-14T01:20:51;100073.03;;;13.35;82.75
75794;BME280;64418;47.536;19.074;2023-06-14T01:23:43;100066.97;;;13.33;83.00
75794;BME280;64418;47.536;19.074;2023-06-14T01:26:33;100066.84;;;13.28;82.96
75794;BME280;64418;47.536;19.074;2023-06-14T01:29:25;100068.53;;;13.29;82.81
75794;BME280;64418;47.536;19.074;2023-06-14T01:32:17;100072.84;;;13.19;83.45
75794;BME280;64418;47.536;19.074;2023-06-14T01:35:08;100071.56;;;13.21;83.14
75794;BME280;64418;47.536;19.074;2023-06-14T01:37:59;100070.13;;;13.19;83.46
75794;BME280;64418;47.536;19.074;2023-06-14T01:40:53;100070.66;;;13.09;83.98
75794;BME280;64418;47.536;19.074;2023-06-14T01:43:44;100076.56;;;13.06;84.23
75794;BME280;64418;47.536;19.074;2023-06-14T01:46:35;100070.13;;;13.00;84.30
75794;BME280;64418;47.536;19.074;2023-06-14T01:49:26;100074.97;;;12.98;84.85
75794;BME280;64418;47.536;19.074;2023-06-14T01:52:17;100070.97;;;13.01;84.53
75794;BME280;64418;47.536;19.074;2023-06-14T01:55:08;100078.97;;;12.96;84.74
75794;BME280;64418;47.536;19.074;2023-06-14T01:58:02;100077.41;;;12.88;85.23
75794;BME280;64418;47.536;19.074;2023-06-14T02:00:53;100081.19;;;12.87;85.70
75794;BME280;64418;47.536;19.074;2023-06-14T02:03:43;100080.38;;;12.87;85.39
75794;BME280;64418;47.536;19.074;2023-06-14T02:06:33;100091.37;;;12.74;86.40
75794;BME280;64418;47.536;19.074;2023-06-14T02:09:21;100090.19;;;12.70;86.78
75794;BME280;64418;47.536;19.074;2023-06-14T02:12:11;100089.34;;;12.69;87.16
75794;BME280;64418;47.536;19.074;2023-06-14T02:15:03;100098.50;;;12.75;87.00
75794;BME280;64418;47.536;19.074;2023-06-14T02:17:53;100090.72;;;12.78;87.08
75794;BME280;64418;47.536;19.074;2023-06-14T02:20:43;100091.37;;;12.74;87.48
75794;BME280;64418;47.536;19.074;2023-06-14T02:23:33;100098.69;;;12.73;87.55
75794;BME280;64418;47.536;19.074;2023-06-14T02:26:23;100091.84;;;12.71;88.13
75794;BME280;64418;47.536;19.074;2023-06-14T02:29:11;100090.19;;;12.70;88.11
75794;BME280;64418;47.536;19.074;2023-06-14T02:32:04;100091.94;;;12.64;88.08
75794;BME280;64418;47.536;19.074;2023-06-14T02:34:54;100088.97;;;12.66;88.18
75794;BME280;64418;47.536;19.074;2023-06-14T02:37:44;100089.44;;;12.63;88.30
75794;BME280;64418;47.536;19.074;2023-06-14T02:40:35;100088.84;;;12.61;88.49
75794;BME280;64418;47.536;19.074;2023-06-14T02:43:28;100083.78;;;12.46;88.97
75794;BME280;64418;47.536;19.074;2023-06-14T02:46:19;100093.19;;;12.62;88.68
75794;BME280;64418;47.536;19.074;2023-06-14T02:49:11;100078.34;;;12.46;88.99
75794;BME280;64418;47.536;19.074;2023-06-14T02:52:01;100076.12;;;12.54;89.30
75794;BME280;64418;47.536;19.074;2023-06-14T02:54:52;100088.22;;;12.59;89.53
75794;BME280;64418;47.536;19.074;2023-06-14T02:57:42;100077.66;;;12.69;88.86
75794;BME280;64418;47.536;19.074;2023-06-14T03:00:32;100082.78;;;12.59;89.53
75794;BME280;64418;47.536;19.074;2023-06-14T03:03:22;100071.16;;;12.51;90.21
75794;BME280;64418;47.536;19.074;2023-06-14T03:06:14;100085.38;;;12.53;89.90
75794;BME280;64418;47.536;19.074;2023-06-14T03:09:04;100081.56;;;12.54;90.21
75794;BME280;64418;47.536;19.074;2023-06-14T03:11:52;100086.41;;;12.52;90.65
75794;BME280;64418;47.536;19.074;2023-06-14T03:14:45;100080.38;;;12.50;90.99
75794;BME280;64418;47.536;19.074;2023-06-14T03:17:35;100083.06;;;12.50;91.03
75794;BME280;64418;47.536;19.074;2023-06-14T03:20:28;100087.84;;;12.55;90.90
75794;BME280;64418;47.536;19.074;2023-06-14T03:23:20;100085.97;;;12.55;90.79
75794;BME280;64418;47.536;19.074;2023-06-14T03:26:10;100080.97;;;12.52;91.04
75794;BME280;64418;47.536;19.074;2023-06-14T03:29:01;100089.13;;;12.52;90.61
75794;BME280;64418;47.536;19.074;2023-06-14T03:31:59;100089.72;;;12.54;90.37
75794;BME280;64418;47.536;19.074;2023-06-14T03:34:49;100090.63;;;12.48;90.36
75794;BME280;64418;47.536;19.074;2023-06-14T03:37:37;100090.03;;;12.46;90.09
75794;BME280;64418;47.536;19.074;2023-06-14T03:40:30;100099.53;;;12.55;89.43
75794;BME280;64418;47.536;19.074;2023-06-14T03:43:20;100098.34;;;12.51;89.19
75794;BME280;64418;47.536;19.074;2023-06-14T03:46:11;100097.03;;;12.54;88.98
75794;BME280;64418;47.536;19.074;2023-06-14T03:49:01;100095.78;;;12.57;88.80
75794;BME280;64418;47.536;19.074;2023-06-14T03:51:51;100103.09;;;12.56;88.85
75794;BME280;64418;47.536;19.074;2023-06-14T03:54:41;100106.03;;;12.54;88.94
75794;BME280;64418;47.536;19.074;2023-06-14T03:57:31;100101.13;;;12.63;88.76
75794;BME280;64418;47.536;19.074;2023-06-14T04:00:21;100098.13;;;12.71;88.43
75794;BME280;64418;47.536;19.074;2023-06-14T04:03:12;100098.03;;;12.78;87.96
75794;BME280;64418;47.536;19.074;2023-06-14T04:06:02;100104.22;;;12.85;87.68
75794;BME280;64418;47.536;19.074;2023-06-14T04:08:55;100095.28;;;12.96;87.18
75794;BME280;64418;47.536;19.074;2023-06-14T04:11:46;100105.03;;;13.03;86.73
75794;BME280;64418;47.536;19.074;2023-06-14T04:14:38;100109.03;;;13.01;86.94
75794;BME280;64418;47.536;19.074;2023-06-14T04:17:28;100111.84;;;13.13;86.50
75794;BME280;64418;47.536;19.074;2023-06-14T04:20:16;100114.63;;;13.24;85.58
75794;BME280;64418;47.536;19.074;2023-06-14T04:23:13;100121.84;;;13.30;85.29
75794;BME280;64418;47.536;19.074;2023-06-14T04:26:07;100122.94;;;13.29;85.24
75794;BME280;64418;47.536;19.074;2023-06-14T04:28:57;100125.59;;;13.47;84.46
75794;BME280;64418;47.536;19.074;2023-06-14T04:31:49;100120.88;;;13.55;83.91
75794;BME280;64418;47.536;19.074;2023-06-14T04:34:39;100120.22;;;13.71;83.08
75794;BME280;64418;47.536;19.074;2023-06-14T04:37:29;100124.72;;;13.77;82.91
75794;BME280;64418;47.536;19.074;2023-06-14T04:40:19;100120.50;;;13.92;82.19
75794;BME280;64418;47.536;19.074;2023-06-14T04:43:09;100109.72;;;13.97;81.63
75794;BME280;64418;47.536;19.074;2023-06-14T04:45:57;100120.53;;;14.16;80.88
75794;BME280;64418;47.536;19.074;2023-06-14T04:48:49;100118.87;;;14.26;80.44
75794;BME280;64418;47.536;19.074;2023-06-14T04:51:39;100124.59;;;14.36;79.73
75794;BME280;64418;47.536;19.074;2023-06-14T04:54:29;100129.09;;;14.42;79.12
75794;BME280;64418;47.536;19.074;2023-06-14T04:57:19;100128.25;;;14.54;78.54
75794;BME280;64418;47.536;19.074;2023-06-14T05:00:10;100124.69;;;14.65;78.02
75794;BME280;64418;47.536;19.074;2023-06-14T05:03:00;100128.47;;;14.75;77.67
75794;BME280;64418;47.536;19.074;2023-06-14T05:05:50;100133.66;;;14.77;77.09
75794;BME280;64418;47.536;19.074;2023-06-14T05:08:42;100133.53;;;14.95;76.60
75794;BME280;64418;47.536;19.074;2023-06-14T05:11:32;100137.81;;;14.91;76.54
75794;BME280;64418;47.536;19.074;2023-06-14T05:14:22;100137.44;;;14.99;75.90
75794;BME280;64418;47.536;19.074;2023-06-14T05:17:12;100135.63;;;15.05;75.71
75794;BME280;64418;47.536;19.074;2023-06-14T05:20:03;100137.75;;;15.14;75.00
75794;BME280;64418;47.536;19.074;2023-06-14T05:22:55;100130.97;;;15.17;74.31
75794;BME280;64418;47.536;19.074;2023-06-14T05:25:43;100130.81;;;15.23;73.81
75794;BME280;64418;47.536;19.074;2023-06-14T05:28:33;100137.41;;;15.51;72.68
75794;BME280;64418;47.536;19.074;2023-06-14T05:31:26;100138.84;;;15.70;72.17
75794;BME280;64418;47.536;19.074;2023-06-14T05:34:19;100141.75;;;15.63;72.04
75794;BME280;64418;47.536;19.074;2023-06-14T05:37:09;100131.28;;;15.60;72.17
75794;BME280;64418;47.536;19.074;2023-06-14T05:40:01;100135.75;;;15.50;72.44
75794;BME280;64418;47.536;19.074;2023-06-14T05:42:51;100137.84;;;15.59;72.34
75794;BME280;64418;47.536;19.074;2023-06-14T05:45:43;100143.72;;;15.68;71.86
75794;BME280;64418;47.536;19.074;2023-06-14T05:48:33;100139.53;;;15.77;71.81
75794;BME280;64418;47.536;19.074;2023-06-14T05:51:24;100140.44;;;15.99;71.49
75794;BME280;64418;47.536;19.074;2023-06-14T05:54:14;100138.44;;;15.95;71.10
75794;BME280;64418;47.536;19.074;2023-06-14T05:57:06;100133.50;;;16.08;70.87
75794;BME280;64418;47.536;19.074;2023-06-14T05:59:56;100138.63;;;16.21;70.38
75794;BME280;64418;47.536;19.074;2023-06-14T06:02:46;100146.75;;;16.50;69.45
75794;BME280;64418;47.536;19.074;2023-06-14T06:05:37;100140.88;;;16.41;69.23
75794;BME280;64418;47.536;19.074;2023-06-14T06:08:27;100146.94;;;17.03;68.64
75794;BME280;64418;47.536;19.074;2023-06-14T06:11:14;100142.91;;;16.84;68.01
75794;BME280;64418;47.536;19.074;2023-06-14T06:14:06;100148.75;;;17.14;67.17
75794;BME280;64418;47.536;19.074;2023-06-14T06:16:57;100151.03;;;17.22;66.67
75794;BME280;64418;47.536;19.074;2023-06-14T06:19:47;100150.19;;;17.00;66.63
75794;BME280;64418;47.536;19.074;2023-06-14T06:22:37;100146.63;;;17.00;66.87
75794;BME280;64418;47.536;19.074;2023-06-14T06:25:28;100147.09;;;17.13;66.83
75794;BME280;64418;47.536;19.074;2023-06-14T06:27:55;100147.84;;;17.30;65.66
75794;BME280;64418;47.536;19.074;2023-06-14T06:30:24;100146.88;;;17.42;65.37
75794;BME280;64418;47.536;19.074;2023-06-14T06:32:50;100152.91;;;17.92;64.76
75794;BME280;64418;47.536;19.074;2023-06-14T06:35:16;100147.75;;;18.27;63.89
75794;BME280;64418;47.536;19.074;2023-06-14T06:37:43;100152.44;;;18.00;63.04
75794;BME280;64418;47.536;19.074;2023-06-14T06:40:09;100153.53;;;18.31;63.81
75794;BME280;64418;47.536;19.074;2023-06-14T06:42:35;100154.38;;;17.73;63.73
75794;BME280;64418;47.536;19.074;2023-06-14T06:45:01;100148.34;;;17.71;63.94
75794;BME280;64418;47.536;19.074;2023-06-14T06:47:29;100155.53;;;18.09;62.90
75794;BME280;64418;47.536;19.074;2023-06-14T06:49:58;100147.50;;;17.97;63.03
75794;BME280;64418;47.536;19.074;2023-06-14T06:52:24;100147.78;;;18.33;61.87
75794;BME280;64418;47.536;19.074;2023-06-14T06:54:50;100148.41;;;18.45;61.56
75794;BME280;64418;47.536;19.074;2023-06-14T06:57:16;100147.69;;;18.22;61.87
75794;BME280;64418;47.536;19.074;2023-06-14T06:59:41;100138.50;;;18.75;60.41
75794;BME280;64418;47.536;19.074;2023-06-14T07:02:08;100147.06;;;18.84;60.54
75794;BME280;64418;47.536;19.074;2023-06-14T07:04:35;100151.06;;;18.66;60.65
75794;BME280;64418;47.536;19.074;2023-06-14T07:07:02;100142.28;;;19.21;59.80
75794;BME280;64418;47.536;19.074;2023-06-14T07:09:29;100140.75;;;19.51;58.29
75794;BME280;64418;47.536;19.074;2023-06-14T07:11:55;100141.72;;;19.14;58.93
75794;BME280;64418;47.536;19.074;2023-06-14T07:14:21;100148.31;;;19.18;58.55
75794;BME280;64418;47.536;19.074;2023-06-14T07:16:48;100154.25;;;18.95;59.13
75794;BME280;64418;47.536;19.074;2023-06-14T07:19:14;100156.38;;;19.40;58.55
75794;BME280;64418;47.536;19.074;2023-06-14T07:21:41;100160.47;;;19.38;57.26
75794;BME280;64418;47.536;19.074;2023-06-14T07:24:07;100159.22;;;19.65;56.90
75794;BME280;64418;47.536;19.074;2023-06-14T07:26:33;100164.50;;;20.07;55.03
75794;BME280;64418;47.536;19.074;2023-06-14T07:29:01;100142.47;;;19.77;56.17
75794;BME280;64418;47.536;19.074;2023-06-14T07:31:27;100149.09;;;20.06;55.37
75794;BME280;64418;47.536;19.074;2023-06-14T07:33:53;100150.19;;;20.00;55.67
75794;BME280;64418;47.536;19.074;2023-06-14T07:36:22;100147.72;;;19.89;56.01
75794;BME280;64418;47.536;19.074;2023-06-14T07:38:50;100154.88;;;20.40;53.63
75794;BME280;64418;47.536;19.074;2023-06-14T07:41:16;100155.75;;;20.31;53.86
75794;BME280;64418;47.536;19.074;2023-06-14T07:43:42;100170.13;;;21.27;50.94
75794;BME280;64418;47.536;19.074;2023-06-14T07:46:09;100168.31;;;20.82;51.86
75794;BME280;64418;47.536;19.074;2023-06-14T07:48:36;100173.78;;;21.12;51.00
75794;BME280;64418;47.536;19.074;2023-06-14T07:51:03;100175.00;;;20.41;51.39
75794;BME280;64418;47.536;19.074;2023-06-14T07:53:30;100170.31;;;20.46;52.03
75794;BME280;64418;47.536;19.074;2023-06-14T07:55:59;100170.88;;;20.38;51.56
75794;BME280;64418;47.536;19.074;2023-06-14T07:58:26;100179.66;;;20.45;51.20
75794;BME280;64418;47.536;19.074;2023-06-14T08:00:52;100179.63;;;20.25;51.45
75794;BME280;64418;47.536;19.074;2023-06-14T08:03:18;100168.34;;;20.72;51.26
75794;BME280;64418;47.536;19.074;2023-06-14T08:05:44;100173.22;;;21.05;50.03
75794;BME280;64418;47.536;19.074;2023-06-14T08:08:11;100173.84;;;21.56;48.76
75794;BME280;64418;47.536;19.074;2023-06-14T08:10:38;100177.03;;;21.25;49.01
75794;BME280;64418;47.536;19.074;2023-06-14T08:13:06;100169.88;;;21.78;48.37
75794;BME280;64418;47.536;19.074;2023-06-14T08:15:32;100175.06;;;21.89;48.05
75794;BME280;64418;47.536;19.074;2023-06-14T08:18:00;100175.06;;;21.84;47.96
75794;BME280;64418;47.536;19.074;2023-06-14T08:20:28;100175.22;;;22.42;46.53
75794;BME280;64418;47.536;19.074;2023-06-14T08:22:54;100172.66;;;22.84;45.43
75794;BME280;64418;47.536;19.074;2023-06-14T08:25:20;100166.97;;;22.71;45.85
75794;BME280;64418;47.536;19.074;2023-06-14T08:27:46;100170.06;;;23.17;45.25
75794;BME280;64418;47.536;19.074;2023-06-14T08:30:14;100166.53;;;23.35;44.71
75794;BME280;64418;47.536;19.074;2023-06-14T08:32:41;100166.53;;;22.87;44.96
75794;BME280;64418;47.536;19.074;2023-06-14T08:35:07;100178.22;;;23.27;44.44
75794;BME280;64418;47.536;19.074;2023-06-14T08:37:39;100171.44;;;23.38;43.57
75794;BME280;64418;47.536;19.074;2023-06-14T08:40:20;100177.50;;;22.64;44.86
75794;BME280;64418;47.536;19.074;2023-06-14T08:42:50;100188.09;;;22.23;46.67
75794;BME280;64418;47.536;19.074;2023-06-14T08:45:19;100183.41;;;22.52;46.44
75794;BME280;64418;47.536;19.074;2023-06-14T08:47:45;100139.63;;;22.06;46.50
75794;BME280;64418;47.536;19.074;2023-06-14T08:50:13;100118.84;;;21.36;47.13
75794;BME280;64418;47.536;19.074;2023-06-14T08:52:41;100200.06;;;21.59;48.04
75794;BME280;64418;47.536;19.074;2023-06-14T08:55:13;100196.72;;;21.62;47.64
75794;BME280;64418;47.536;19.074;2023-06-14T08:57:41;100189.53;;;21.66;47.10
75794;BME280;64418;47.536;19.074;2023-06-14T09:00:10;100202.22;;;21.67;46.38
75794;BME280;64418;47.536;19.074;2023-06-14T09:02:40;100204.31;;;21.85;46.38
75794;BME280;64418;47.536;19.074;2023-06-14T09:05:07;100211.97;;;21.98;46.14
75794;BME280;64418;47.536;19.074;2023-06-14T09:07:36;100209.22;;;21.98;46.34
75794;BME280;64418;47.536;19.074;2023-06-14T09:10:10;100213.31;;;22.06;46.10
75794;BME280;64418;47.536;19.074;2023-06-14T09:12:40;100213.75;;;22.23;45.63
75794;BME280;64418;47.536;19.074;2023-06-14T09:15:06;100205.28;;;22.09;45.67
75794;BME280;64418;47.536;19.074;2023-06-14T09:17:33;100210.75;;;22.20;45.33
75794;BME280;64418;47.536;19.074;2023-06-14T09:20:01;100216.84;;;22.17;44.48
75794;BME280;64418;47.536;19.074;2023-06-14T09:22:29;100205.25;;;21.66;46.90
75794;BME280;64418;47.536;19.074;2023-06-14T09:24:56;100221.09;;;21.99;45.99
75794;BME280;64418;47.536;19.074;2023-06-14T09:27:24;100169.37;;;21.71;46.33
75794;BME280;64418;47.536;19.074;2023-06-14T09:29:51;100211.50;;;21.86;46.54
75794;BME280;64418;47.536;19.074;2023-06-14T09:32:17;100211.47;;;21.91;46.75
75794;BME280;64418;47.536;19.074;2023-06-14T09:34:43;100216.59;;;22.13;46.46
75794;BME280;64418;47.536;19.074;2023-06-14T09:37:11;100202.66;;;21.84;46.70
75794;BME280;64418;47.536;19.074;2023-06-14T09:39:49;100210.03;;;21.99;46.01
75794;BME280;64418;47.536;19.074;2023-06-14T09:42:17;100204.84;;;21.92;45.86
75794;BME280;64418;47.536;19.074;2023-06-14T09:44:44;100195.31;;;22.14;45.75
75794;BME280;64418;47.536;19.074;2023-06-14T09:47:14;100190.28;;;23.36;43.16
75794;BME280;64418;47.536;19.074;2023-06-14T09:49:42;100195.84;;;24.34;40.37
75794;BME280;64418;47.536;19.074;2023-06-14T09:52:13;100146.56;;;23.80;39.68
75794;BME280;64418;47.536;19.074;2023-06-14T09:54:43;100189.19;;;25.14;38.21
75794;BME280;64418;47.536;19.074;2023-06-14T09:57:10;100192.38;;;25.62;38.20
75794;BME280;64418;47.536;19.074;2023-06-14T09:59:37;100199.94;;;25.15;37.16
75794;BME280;64418;47.536;19.074;2023-06-14T10:02:11;100191.00;;;25.86;37.29
75794;BME280;64418;47.536;19.074;2023-06-14T10:04:38;100179.84;;;25.64;35.70
75794;BME280;64418;47.536;19.074;2023-06-14T10:07:05;100176.78;;;26.02;34.92
75794;BME280;64418;47.536;19.074;2023-06-14T10:09:34;100176.06;;;26.54;33.63
75794;BME280;64418;47.536;19.074;2023-06-14T10:12:04;100175.87;;;26.51;32.50
75794;BME280;64418;47.536;19.074;2023-06-14T10:14:30;100178.38;;;26.83;31.67
75794;BME280;64418;47.536;19.074;2023-06-14T10:17:08;100172.84;;;26.92;31.50
75794;BME280;64418;47.536;19.074;2023-06-14T10:19:41;100171.97;;;27.61;30.38
75794;BME280;64418;47.536;19.074;2023-06-14T10:22:11;100177.31;;;27.41;30.68
75794;BME280;64418;47.536;19.074;2023-06-14T10:24:44;100171.41;;;28.16;29.47
75794;BME280;64418;47.536;19.074;2023-06-14T10:27:14;100166.81;;;27.38;30.33
75794;BME280;64418;47.536;19.074;2023-06-14T10:30:02;100173.28;;;27.55;29.99
75794;BME280;64418;47.536;19.074;2023-06-14T10:32:28;100168.09;;;27.32;29.50
75794;BME280;64418;47.536;19.074;2023-06-14T10:34:58;100169.75;;;26.71;31.25
75794;BME280;64418;47.536;19.074;2023-06-14T10:37:26;100156.69;;;26.05;31.74
75794;BME280;64418;47.536;19.074;2023-06-14T10:39:54;100160.34;;;26.14;31.83
75794;BME280;64418;47.536;19.074;2023-06-14T10:42:20;100152.09;;;25.10;34.26
75794;BME280;64418;47.536;19.074;2023-06-14T10:44:49;100168.88;;;26.17;32.33
75794;BME280;64418;47.536;19.074;2023-06-14T10:47:25;100162.13;;;25.74;32.81
75794;BME280;64418;47.536;19.074;2023-06-14T10:49:54;100151.84;;;27.16;31.11
75794;BME280;64418;47.536;19.074;2023-06-14T10:52:25;100158.59;;;27.33;29.98
75794;BME280;64418;47.536;19.074;2023-06-14T10:55:08;100163.50;;;26.88;30.62
75794;BME280;64418;47.536;19.074;2023-06-14T10:57:35;100152.63;;;25.53;34.25
75794;BME280;64418;47.536;19.074;2023-06-14T11:00:04;100151.19;;;24.22;37.66
75794;BME280;64418;47.536;19.074;2023-06-14T11:02:51;100152.31;;;23.65;39.52
75794;BME280;64418;47.536;19.074;2023-06-14T11:05:24;100154.44;;;24.43;38.78
75794;BME280;64418;47.536;19.074;2023-06-14T11:08:09;100159.94;;;25.08;36.29
75794;BME280;64418;47.536;19.074;2023-06-14T11:10:43;100149.53;;;25.13;36.12
75794;BME280;64418;47.536;19.074;2023-06-14T11:13:10;100148.06;;;23.73;38.27
75794;BME280;64418;47.536;19.074;2023-06-14T11:15:37;100121.16;;;23.36;38.22
75794;BME280;64418;47.536;19.074;2023-06-14T11:18:04;100141.78;;;23.25;38.34
75794;BME280;64418;47.536;19.074;2023-06-14T11:20:31;100148.00;;;24.93;35.58
75794;BME280;64418;47.536;19.074;2023-06-14T11:22:59;100144.63;;;24.51;35.63
75794;BME280;64418;47.536;19.074;2023-06-14T11:25:25;100147.59;;;24.03;36.38
75794;BME280;64418;47.536;19.074;2023-06-14T11:27:54;100141.75;;;24.56;35.42
75794;BME280;64418;47.536;19.074;2023-06-14T11:30:22;100143.03;;;24.77;35.35
75794;BME280;64418;47.536;19.074;2023-06-14T11:32:49;100136.69;;;24.90;35.57
75794;BME280;64418;47.536;19.074;2023-06-14T11:35:16;100142.06;;;24.54;36.61
75794;BME280;64418;47.536;19.074;2023-06-14T11:37:44;100130.28;;;24.30;37.87
75794;BME280;64418;47.536;19.074;2023-06-14T11:40:12;100138.69;;;24.57;37.29
75794;BME280;64418;47.536;19.074;2023-06-14T11:42:39;100148.22;;;25.52;35.66
75794;BME280;64418;47.536;19.074;2023-06-14T11:45:11;100141.13;;;25.81;35.15
75794;BME280;64418;47.536;19.074;2023-06-14T11:47:39;100132.19;;;27.13;33.12
75794;BME280;64418;47.536;19.074;2023-06-14T11:50:06;100149.16;;;26.72;33.99
75794;BME280;64418;47.536;19.074;2023-06-14T11:52:33;100150.06;;;26.14;35.31
75794;BME280;64418;47.536;19.074;2023-06-14T11:55:01;100146.81;;;25.76;35.76
75794;BME280;64418;47.536;19.074;2023-06-14T11:57:28;100142.16;;;25.85;35.82
75794;BME280;64418;47.536;19.074;2023-06-14T11:59:56;100140.53;;;25.08;36.99
75794;BME280;64418;47.536;19.074;2023-06-14T12:02:24;100140.56;;;26.29;35.45
75794;BME280;64418;47.536;19.074;2023-06-14T12:04:51;100141.38;;;25.71;36.34
75794;BME280;64418;47.536;19.074;2023-06-14T12:07:18;100151.22;;;24.82;38.13
75794;BME280;64418;47.536;19.074;2023-06-14T12:10:04;100144.84;;;24.54;39.11
75794;BME280;64418;47.536;19.074;2023-06-14T12:12:30;100150.66;;;25.53;37.03
75794;BME280;64418;47.536;19.074;2023-06-14T12:15:02;100145.66;;;24.55;38.69
75794;BME280;64418;47.536;19.074;2023-06-14T12:17:32;100148.81;;;25.35;37.60
75794;BME280;64418;47.536;19.074;2023-06-14T12:20:04;100146.78;;;24.54;38.47
75794;BME280;64418;47.536;19.074;2023-06-14T12:22:30;100148.16;;;23.68;39.89
75794;BME280;64418;47.536;19.074;2023-06-14T12:24:57;100141.91;;;23.94;39.43
75794;BME280;64418;47.536;19.074;2023-06-14T12:27:23;100142.84;;;24.41;38.57
75794;BME280;64418;47.536;19.074;2023-06-14T12:29:59;100145.59;;;24.41;38.32
75794;BME280;64418;47.536;19.074;2023-06-14T12:32:26;100144.34;;;23.82;39.00
75794;BME280;64418;47.536;19.074;2023-06-14T12:34:56;100143.69;;;24.55;37.84
75794;BME280;64418;47.536;19.074;2023-06-14T12:37:25;100145.47;;;24.78;37.34
75794;BME280;64418;47.536;19.074;2023-06-14T12:39:53;100149.44;;;25.59;35.08
75794;BME280;64418;47.536;19.074;2023-06-14T12:42:19;100155.13;;;25.76;34.06
75794;BME280;64418;47.536;19.074;2023-06-14T12:44:45;100153.13;;;25.55;34.48
75794;BME280;64418;47.536;19.074;2023-06-14T12:47:11;100150.66;;;25.39;34.86
75794;BME280;64418;47.536;19.074;2023-06-14T12:49:38;100144.19;;;25.30;34.80
75794;BME280;64418;47.536;19.074;2023-06-14T12:52:08;100153.75;;;26.23;33.42
75794;BME280;64418;47.536;19.074;2023-06-14T12:54:34;100155.09;;;26.26;32.88
75794;BME280;64418;47.536;19.074;2023-06-14T12:57:03;100146.34;;;26.63;31.65
75794;BME280;64418;47.536;19.074;2023-06-14T12:59:30;100139.38;;;25.09;34.52
75794;BME280;64418;47.536;19.074;2023-06-14T13:01:56;100118.13;;;25.81;33.56
75794;BME280;64418;47.536;19.074;2023-06-14T13:04:23;100142.06;;;25.77;33.27
75794;BME280;64418;47.536;19.074;2023-06-14T13:06:48;100135.00;;;25.71;33.87
75794;BME280;64418;47.536;19.074;2023-06-14T13:09:17;100121.16;;;24.75;34.74
75794;BME280;64418;47.536;19.074;2023-06-14T13:11:43;100132.03;;;24.58;34.54
75794;BME280;64418;47.536;19.074;2023-06-14T13:14:08;100124.75;;;24.62;34.89
75794;BME280;64418;47.536;19.074;2023-06-14T13:16:35;100130.84;;;24.32;35.61
75794;BME280;64418;47.536;19.074;2023-06-14T13:19:01;100123.72;;;24.26;35.86
75794;BME280;64418;47.536;19.074;2023-06-14T13:21:27;100126.28;;;23.85;36.28
75794;BME280;64418;47.536;19.074;2023-06-14T13:23:53;100123.81;;;23.83;36.11
75794;BME280;64418;47.536;19.074;2023-06-14T13:26:21;100131.22;;;23.69;35.90
75794;BME280;64418;47.536;19.074;2023-06-14T13:28:50;100128.09;;;23.57;36.02
75794;BME280;64418;47.536;19.074;2023-06-14T13:31:43;100123.94;;;23.36;35.78